sensor_id;sensor_type;location;lat;lon;timestamp;P1;durP1;ratioP1;P2;durP2;ratioP2
69588;SDS011;56792;50.644;17.984;2024-03-07T00:02:29;31.20;;;15.00;;
69588;SDS011;56792;50.644;17.984;2024-03-07T00:05:02;28.40;;;14.30;;
69588;SDS011;56792;50.644;17.984;2024-03-07T00:07:34;35.80;;;15.30;;
69588;SDS011;56792;50.644;17.984;2024-03-07T00:10:07;31.50;;;13.80;;
69588;SDS011;56792;50.644;17.984;2024-03-07T00:12:40;32.40;;;13.80;;
69588;SDS011;56792;50.644;17.984;2024-03-07T00:15:13;27.70;;;13.90;;
69588;SDS011;56792;50.644;17.984;2024-03-07T00:17:45;31.00;;;13.30;;
69588;SDS011;56792;50.644;17.984;2024-03-07T00:20:17;31.90;;;15.60;;
69588;SDS011;56792;50.644;17.984;2024-03-07T00:22:49;26.50;;;13.40;;
69588;SDS011;56792;50.644;17.984;2024-03-07T00:25:20;27.30;;;13.10;;
69588;SDS011;56792;50.644;17.984;2024-03-07T00:27:52;32.30;;;14.70;;
69588;SDS011;56792;50.644;17.984;2024-03-07T00:30:25;28.90;;;14.70;;
69588;SDS011;56792;50.644;17.984;2024-03-07T00:32:57;28.60;;;14.60;;
69588;SDS011;56792;50.644;17.984;2024-03-07T00:35:29;27.40;;;13.40;;
69588;SDS011;56792;50.644;17.984;2024-03-07T00:38:00;28.70;;;14.00;;
69588;SDS011;56792;50.644;17.984;2024-03-07T00:40:32;30.40;;;14.70;;
69588;SDS011;56792;50.644;17.984;2024-03-07T00:43:04;29.10;;;13.90;;
69588;SDS011;56792;50.644;17.984;2024-03-07T00:45:35;26.60;;;13.60;;
69588;SDS011;56792;50.644;17.984;2024-03-07T00:48:07;25.70;;;13.20;;
69588;SDS011;56792;50.644;17.984;2024-03-07T00:50:40;28.20;;;12.80;;
69588;SDS011;56792;50.644;17.984;2024-03-07T00:53:12;23.80;;;13.00;;
69588;SDS011;56792;50.644;17.984;2024-03-07T00:55:44;23.40;;;12.30;;
69588;SDS011;56792;50.644;17.984;2024-03-07T00:58:15;28.80;;;14.10;;
69588;SDS011;56792;50.644;17.984;2024-03-07T01:00:47;28.20;;;13.40;;
69588;SDS011;56792;50.644;17.984;2024-03-07T01:03:18;27.50;;;13.60;;
69588;SDS011;56792;50.644;17.984;2024-03-07T01:05:51;28.50;;;14.10;;
69588;SDS011;56792;50.644;17.984;2024-03-07T01:08:23;28.80;;;14.10;;
69588;SDS011;56792;50.644;17.984;2024-03-07T01:10:55;27.40;;;13.40;;
69588;SDS011;56792;50.644;17.984;2024-03-07T01:13:27;28.80;;;13.40;;
69588;SDS011;56792;50.644;17.984;2024-03-07T01:15:58;26.90;;;13.60;;
69588;SDS011;56792;50.644;17.984;2024-03-07T01:18:30;25.40;;;14.40;;
69588;SDS011;56792;50.644;17.984;2024-03-07T01:21:02;31.30;;;13.80;;
69588;SDS011;56792;50.644;17.984;2024-03-07T01:23:36;27.80;;;13.60;;
69588;SDS011;56792;50.644;17.984;2024-03-07T01:26:08;28.60;;;12.50;;
69588;SDS011;56792;50.644;17.984;2024-03-07T01:28:40;29.80;;;14.00;;
69588;SDS011;56792;50.644;17.984;2024-03-07T01:31:12;36.80;;;17.30;;
69588;SDS011;56792;50.644;17.984;2024-03-07T01:33:43;32.60;;;18.60;;
69588;SDS011;56792;50.644;17.984;2024-03-07T01:36:15;32.60;;;17.10;;
69588;SDS011;56792;50.644;17.984;2024-03-07T01:38:46;27.50;;;14.30;;
69588;SDS011;56792;50.644;17.984;2024-03-07T01:41:18;28.20;;;13.20;;
69588;SDS011;56792;50.644;17.984;2024-03-07T01:43:49;30.50;;;15.50;;
69588;SDS011;56792;50.644;17.984;2024-03-07T01:46:21;27.10;;;14.00;;
69588;SDS011;56792;50.644;17.984;2024-03-07T01:48:53;26.30;;;14.30;;
69588;SDS011;56792;50.644;17.984;2024-03-07T01:51:25;30.30;;;14.50;;
69588;SDS011;56792;50.644;17.984;2024-03-07T01:53:57;31.00;;;16.10;;
69588;SDS011;56792;50.644;17.984;2024-03-07T01:56:29;29.20;;;13.80;;
69588;SDS011;56792;50.644;17.984;2024-03-07T01:59:02;29.40;;;14.30;;
69588;SDS011;56792;50.644;17.984;2024-03-07T02:01:36;28.00;;;14.20;;
69588;SDS011;56792;50.644;17.984;2024-03-07T02:04:08;28.70;;;14.50;;
69588;SDS011;56792;50.644;17.984;2024-03-07T02:06:39;27.60;;;15.40;;
69588;SDS011;56792;50.644;17.984;2024-03-07T02:09:11;25.70;;;13.50;;
69588;SDS011;56792;50.644;17.984;2024-03-07T02:11:43;33.00;;;14.70;;
69588;SDS011;56792;50.644;17.984;2024-03-07T02:14:16;27.70;;;14.20;;
69588;SDS011;56792;50.644;17.984;2024-03-07T02:16:48;26.40;;;14.70;;
69588;SDS011;56792;50.644;17.984;2024-03-07T02:19:19;30.60;;;14.80;;
69588;SDS011;56792;50.644;17.984;2024-03-07T02:21:51;25.70;;;14.10;;
69588;SDS011;56792;50.644;17.984;2024-03-07T02:24:23;27.10;;;13.80;;
69588;SDS011;56792;50.644;17.984;2024-03-07T02:26:54;29.10;;;15.50;;
69588;SDS011;56792;50.644;17.984;2024-03-07T02:29:27;29.20;;;14.80;;
69588;SDS011;56792;50.644;17.984;2024-03-07T02:32:00;26.90;;;14.30;;
69588;SDS011;56792;50.644;17.984;2024-03-07T02:34:31;28.50;;;14.50;;
69588;SDS011;56792;50.644;17.984;2024-03-07T02:37:03;25.90;;;14.10;;
69588;SDS011;56792;50.644;17.984;2024-03-07T02:39:37;26.00;;;13.50;;
69588;SDS011;56792;50.644;17.984;2024-03-07T02:42:09;25.30;;;12.90;;
69588;SDS011;56792;50.644;17.984;2024-03-07T02:44:40;34.60;;;18.60;;
69588;SDS011;56792;50.644;17.984;2024-03-07T02:47:13;32.20;;;18.00;;
69588;SDS011;56792;50.644;17.984;2024-03-07T02:49:44;28.90;;;14.60;;
69588;SDS011;56792;50.644;17.984;2024-03-07T02:52:15;27.80;;;14.30;;
69588;SDS011;56792;50.644;17.984;2024-03-07T02:54:47;27.00;;;14.30;;
69588;SDS011;56792;50.644;17.984;2024-03-07T02:57:18;31.20;;;14.40;;
69588;SDS011;56792;50.644;17.984;2024-03-07T02:59:50;28.40;;;15.40;;
69588;SDS011;56792;50.644;17.984;2024-03-07T03:02:21;30.20;;;17.30;;
69588;SDS011;56792;50.644;17.984;2024-03-07T03:04:53;28.40;;;16.00;;
69588;SDS011;56792;50.644;17.984;2024-03-07T03:07:25;29.50;;;14.80;;
69588;SDS011;56792;50.644;17.984;2024-03-07T03:09:56;32.10;;;15.90;;
69588;SDS011;56792;50.644;17.984;2024-03-07T03:12:28;30.40;;;16.20;;
69588;SDS011;56792;50.644;17.984;2024-03-07T03:15:00;32.10;;;15.60;;
69588;SDS011;56792;50.644;17.984;2024-03-07T03:17:33;27.30;;;15.20;;
69588;SDS011;56792;50.644;17.984;2024-03-07T03:20:06;26.80;;;14.90;;
69588;SDS011;56792;50.644;17.984;2024-03-07T03:22:53;29.20;;;15.00;;
69588;SDS011;56792;50.644;17.984;2024-03-07T03:25:24;30.50;;;15.30;;
69588;SDS011;56792;50.644;17.984;2024-03-07T03:27:56;30.80;;;15.20;;
69588;SDS011;56792;50.644;17.984;2024-03-07T03:30:27;33.90;;;17.00;;
69588;SDS011;56792;50.644;17.984;2024-03-07T03:32:59;30.40;;;15.10;;
69588;SDS011;56792;50.644;17.984;2024-03-07T03:35:30;30.70;;;17.00;;
69588;SDS011;56792;50.644;17.984;2024-03-07T03:38:02;34.00;;;18.60;;
69588;SDS011;56792;50.644;17.984;2024-03-07T03:40:35;29.50;;;14.60;;
69588;SDS011;56792;50.644;17.984;2024-03-07T03:43:07;30.70;;;16.90;;
69588;SDS011;56792;50.644;17.984;2024-03-07T03:45:38;31.80;;;16.30;;
69588;SDS011;56792;50.644;17.984;2024-03-07T03:48:10;29.80;;;15.80;;
69588;SDS011;56792;50.644;17.984;2024-03-07T03:50:41;33.60;;;16.30;;
69588;SDS011;56792;50.644;17.984;2024-03-07T03:53:14;33.10;;;16.80;;
69588;SDS011;56792;50.644;17.984;2024-03-07T03:55:46;32.70;;;18.50;;
69588;SDS011;56792;50.644;17.984;2024-03-07T03:58:18;34.90;;;17.30;;
69588;SDS011;56792;50.644;17.984;2024-03-07T04:00:49;32.00;;;17.10;;
69588;SDS011;56792;50.644;17.984;2024-03-07T04:03:21;30.00;;;16.70;;
69588;SDS011;56792;50.644;17.984;2024-03-07T04:05:52;33.50;;;16.10;;
69588;SDS011;56792;50.644;17.984;2024-03-07T04:08:24;32.30;;;17.10;;
69588;SDS011;56792;50.644;17.984;2024-03-07T04:10:56;34.20;;;16.50;;
69588;SDS011;56792;50.644;17.984;2024-03-07T04:13:27;34.80;;;17.20;;
69588;SDS011;56792;50.644;17.984;2024-03-07T04:16:00;31.30;;;16.10;;
69588;SDS011;56792;50.644;17.984;2024-03-07T04:18:31;28.30;;;15.70;;
69588;SDS011;56792;50.644;17.984;2024-03-07T04:21:03;32.10;;;16.30;;
69588;SDS011;56792;50.644;17.984;2024-03-07T04:23:42;28.90;;;14.50;;
69588;SDS011;56792;50.644;17.984;2024-03-07T04:26:14;30.70;;;15.90;;
69588;SDS011;56792;50.644;17.984;2024-03-07T04:28:46;30.30;;;16.70;;
69588;SDS011;56792;50.644;17.984;2024-03-07T04:31:18;34.40;;;17.00;;
69588;SDS011;56792;50.644;17.984;2024-03-07T04:33:50;32.40;;;17.00;;
69588;SDS011;56792;50.644;17.984;2024-03-07T04:36:21;31.20;;;15.60;;
69588;SDS011;56792;50.644;17.984;2024-03-07T04:38:54;35.80;;;17.00;;
69588;SDS011;56792;50.644;17.984;2024-03-07T04:41:26;29.20;;;17.20;;
69588;SDS011;56792;50.644;17.984;2024-03-07T04:43:58;31.80;;;17.70;;
69588;SDS011;56792;50.644;17.984;2024-03-07T04:46:30;27.10;;;16.00;;
69588;SDS011;56792;50.644;17.984;2024-03-07T04:49:02;32.10;;;16.80;;
69588;SDS011;56792;50.644;17.984;2024-03-07T04:51:33;31.70;;;16.70;;
69588;SDS011;56792;50.644;17.984;2024-03-07T04:54:05;28.50;;;16.30;;
69588;SDS011;56792;50.644;17.984;2024-03-07T04:56:36;30.80;;;17.40;;
69588;SDS011;56792;50.644;17.984;2024-03-07T04:59:09;29.30;;;15.70;;
69588;SDS011;56792;50.644;17.984;2024-03-07T05:01:41;32.20;;;17.10;;
69588;SDS011;56792;50.644;17.984;2024-03-07T05:04:14;32.00;;;16.80;;
69588;SDS011;56792;50.644;17.984;2024-03-07T05:06:46;30.10;;;16.70;;
69588;SDS011;56792;50.644;17.984;2024-03-07T05:09:18;37.00;;;16.60;;
69588;SDS011;56792;50.644;17.984;2024-03-07T05:11:53;36.50;;;17.50;;
69588;SDS011;56792;50.644;17.984;2024-03-07T05:14:26;34.60;;;17.80;;
69588;SDS011;56792;50.644;17.984;2024-03-07T05:16:57;31.20;;;16.80;;
69588;SDS011;56792;50.644;17.984;2024-03-07T05:19:34;33.20;;;18.40;;
69588;SDS011;56792;50.644;17.984;2024-03-07T05:22:06;30.10;;;16.80;;
69588;SDS011;56792;50.644;17.984;2024-03-07T05:24:42;30.30;;;16.30;;
69588;SDS011;56792;50.644;17.984;2024-03-07T05:27:14;30.40;;;17.10;;
69588;SDS011;56792;50.644;17.984;2024-03-07T05:29:45;33.70;;;17.70;;
69588;SDS011;56792;50.644;17.984;2024-03-07T05:32:24;28.70;;;16.40;;
69588;SDS011;56792;50.644;17.984;2024-03-07T05:34:56;32.40;;;17.20;;
69588;SDS011;56792;50.644;17.984;2024-03-07T05:37:28;30.20;;;17.70;;
69588;SDS011;56792;50.644;17.984;2024-03-07T05:40:00;29.10;;;15.50;;
69588;SDS011;56792;50.644;17.984;2024-03-07T05:42:32;29.70;;;16.30;;
69588;SDS011;56792;50.644;17.984;2024-03-07T05:45:04;27.10;;;15.60;;
69588;SDS011;56792;50.644;17.984;2024-03-07T05:47:37;29.60;;;16.10;;
69588;SDS011;56792;50.644;17.984;2024-03-07T05:50:09;28.30;;;15.90;;
69588;SDS011;56792;50.644;17.984;2024-03-07T05:52:41;27.30;;;14.80;;
69588;SDS011;56792;50.644;17.984;2024-03-07T05:55:13;29.40;;;15.80;;
69588;SDS011;56792;50.644;17.984;2024-03-07T05:57:47;31.50;;;16.20;;
69588;SDS011;56792;50.644;17.984;2024-03-07T06:00:19;29.40;;;14.70;;
69588;SDS011;56792;50.644;17.984;2024-03-07T06:02:55;25.80;;;14.90;;
69588;SDS011;56792;50.644;17.984;2024-03-07T06:05:27;31.20;;;15.60;;
69588;SDS011;56792;50.644;17.984;2024-03-07T06:07:59;25.10;;;14.60;;
69588;SDS011;56792;50.644;17.984;2024-03-07T06:10:35;27.50;;;15.20;;
69588;SDS011;56792;50.644;17.984;2024-03-07T06:13:09;25.20;;;14.70;;
69588;SDS011;56792;50.644;17.984;2024-03-07T06:15:46;22.10;;;13.40;;
69588;SDS011;56792;50.644;17.984;2024-03-07T06:18:17;26.80;;;14.70;;
69588;SDS011;56792;50.644;17.984;2024-03-07T06:20:49;26.90;;;13.30;;
69588;SDS011;56792;50.644;17.984;2024-03-07T06:23:21;27.00;;;15.00;;
69588;SDS011;56792;50.644;17.984;2024-03-07T06:25:52;62.20;;;23.30;;
69588;SDS011;56792;50.644;17.984;2024-03-07T06:28:26;89.70;;;31.20;;
69588;SDS011;56792;50.644;17.984;2024-03-07T06:30:58;59.80;;;22.70;;
69588;SDS011;56792;50.644;17.984;2024-03-07T06:33:32;42.20;;;20.30;;
69588;SDS011;56792;50.644;17.984;2024-03-07T06:36:06;55.90;;;25.90;;
69588;SDS011;56792;50.644;17.984;2024-03-07T06:38:38;46.10;;;21.20;;
69588;SDS011;56792;50.644;17.984;2024-03-07T06:41:09;39.50;;;19.70;;
69588;SDS011;56792;50.644;17.984;2024-03-07T06:43:43;30.50;;;16.20;;
69588;SDS011;56792;50.644;17.984;2024-03-07T06:46:15;36.00;;;19.30;;
69588;SDS011;56792;50.644;17.984;2024-03-07T06:48:48;29.40;;;17.50;;
69588;SDS011;56792;50.644;17.984;2024-03-07T06:51:20;26.00;;;14.00;;
69588;SDS011;56792;50.644;17.984;2024-03-07T06:53:53;32.90;;;15.90;;
69588;SDS011;56792;50.644;17.984;2024-03-07T06:56:25;25.40;;;14.50;;
69588;SDS011;56792;50.644;17.984;2024-03-07T06:58:56;41.90;;;18.70;;
69588;SDS011;56792;50.644;17.984;2024-03-07T07:01:31;42.10;;;19.50;;
69588;SDS011;56792;50.644;17.984;2024-03-07T07:04:03;27.80;;;14.30;;
69588;SDS011;56792;50.644;17.984;2024-03-07T07:06:37;30.10;;;15.60;;
69588;SDS011;56792;50.644;17.984;2024-03-07T07:09:11;25.30;;;13.30;;
69588;SDS011;56792;50.644;17.984;2024-03-07T07:11:47;39.20;;;18.10;;
69588;SDS011;56792;50.644;17.984;2024-03-07T07:14:18;32.00;;;15.80;;
69588;SDS011;56792;50.644;17.984;2024-03-07T07:16:50;24.40;;;13.40;;
69588;SDS011;56792;50.644;17.984;2024-03-07T07:19:21;36.50;;;18.60;;
69588;SDS011;56792;50.644;17.984;2024-03-07T07:21:53;36.20;;;17.80;;
69588;SDS011;56792;50.644;17.984;2024-03-07T07:24:25;42.40;;;18.30;;
69588;SDS011;56792;50.644;17.984;2024-03-07T07:26:58;27.70;;;15.40;;
69588;SDS011;56792;50.644;17.984;2024-03-07T07:29:30;26.10;;;14.40;;
69588;SDS011;56792;50.644;17.984;2024-03-07T07:32:01;25.30;;;14.40;;
69588;SDS011;56792;50.644;17.984;2024-03-07T07:34:33;29.10;;;13.20;;
69588;SDS011;56792;50.644;17.984;2024-03-07T07:37:05;23.70;;;13.50;;
69588;SDS011;56792;50.644;17.984;2024-03-07T07:39:37;24.70;;;14.50;;
69588;SDS011;56792;50.644;17.984;2024-03-07T07:42:08;28.30;;;14.80;;
69588;SDS011;56792;50.644;17.984;2024-03-07T07:44:40;25.40;;;14.30;;
69588;SDS011;56792;50.644;17.984;2024-03-07T07:47:13;23.90;;;14.50;;
69588;SDS011;56792;50.644;17.984;2024-03-07T07:49:44;25.40;;;13.90;;
69588;SDS011;56792;50.644;17.984;2024-03-07T07:52:16;22.70;;;13.90;;
69588;SDS011;56792;50.644;17.984;2024-03-07T07:54:48;25.60;;;13.70;;
69588;SDS011;56792;50.644;17.984;2024-03-07T07:57:19;25.30;;;14.40;;
69588;SDS011;56792;50.644;17.984;2024-03-07T07:59:50;25.10;;;13.70;;
69588;SDS011;56792;50.644;17.984;2024-03-07T08:02:22;24.40;;;14.10;;
69588;SDS011;56792;50.644;17.984;2024-03-07T08:04:53;22.60;;;13.30;;
69588;SDS011;56792;50.644;17.984;2024-03-07T08:07:25;24.00;;;14.20;;
69588;SDS011;56792;50.644;17.984;2024-03-07T08:09:56;25.00;;;14.70;;
69588;SDS011;56792;50.644;17.984;2024-03-07T08:12:28;24.60;;;13.50;;
69588;SDS011;56792;50.644;17.984;2024-03-07T08:15:00;21.00;;;13.10;;
69588;SDS011;56792;50.644;17.984;2024-03-07T08:17:32;22.80;;;13.80;;
69588;SDS011;56792;50.644;17.984;2024-03-07T08:20:04;23.30;;;13.20;;
69588;SDS011;56792;50.644;17.984;2024-03-07T08:22:40;25.20;;;15.10;;
69588;SDS011;56792;50.644;17.984;2024-03-07T08:25:13;25.20;;;14.10;;
69588;SDS011;56792;50.644;17.984;2024-03-07T08:27:47;24.40;;;14.10;;
69588;SDS011;56792;50.644;17.984;2024-03-07T08:30:20;22.70;;;13.70;;
69588;SDS011;56792;50.644;17.984;2024-03-07T08:32:53;21.20;;;13.60;;
69588;SDS011;56792;50.644;17.984;2024-03-07T08:35:25;24.70;;;14.20;;
69588;SDS011;56792;50.644;17.984;2024-03-07T08:37:57;27.60;;;14.40;;
69588;SDS011;56792;50.644;17.984;2024-03-07T08:40:29;25.80;;;14.00;;
69588;SDS011;56792;50.644;17.984;2024-03-07T08:43:03;25.90;;;14.90;;
69588;SDS011;56792;50.644;17.984;2024-03-07T08:45:35;23.40;;;13.80;;
69588;SDS011;56792;50.644;17.984;2024-03-07T08:48:07;24.50;;;13.70;;
69588;SDS011;56792;50.644;17.984;2024-03-07T08:50:40;24.20;;;14.10;;
69588;SDS011;56792;50.644;17.984;2024-03-07T08:53:11;22.50;;;13.60;;
69588;SDS011;56792;50.644;17.984;2024-03-07T08:55:43;25.40;;;14.20;;
69588;SDS011;56792;50.644;17.984;2024-03-07T08:58:14;25.40;;;13.80;;
69588;SDS011;56792;50.644;17.984;2024-03-07T09:00:45;22.10;;;13.80;;
69588;SDS011;56792;50.644;17.984;2024-03-07T09:03:20;25.40;;;13.60;;
69588;SDS011;56792;50.644;17.984;2024-03-07T09:05:52;26.30;;;14.70;;
69588;SDS011;56792;50.644;17.984;2024-03-07T09:08:24;23.70;;;14.80;;
69588;SDS011;56792;50.644;17.984;2024-03-07T09:10:56;24.80;;;14.20;;
69588;SDS011;56792;50.644;17.984;2024-03-07T09:13:27;25.20;;;14.00;;
69588;SDS011;56792;50.644;17.984;2024-03-07T09:15:59;24.40;;;14.10;;
69588;SDS011;56792;50.644;17.984;2024-03-07T09:18:33;24.80;;;13.60;;
69588;SDS011;56792;50.644;17.984;2024-03-07T09:21:05;21.20;;;13.50;;
69588;SDS011;56792;50.644;17.984;2024-03-07T09:23:37;22.50;;;13.40;;
69588;SDS011;56792;50.644;17.984;2024-03-07T09:26:09;25.90;;;14.70;;
69588;SDS011;56792;50.644;17.984;2024-03-07T09:28:41;23.30;;;13.50;;
69588;SDS011;56792;50.644;17.984;2024-03-07T09:31:12;25.60;;;14.60;;
69588;SDS011;56792;50.644;17.984;2024-03-07T09:33:45;26.30;;;15.40;;
69588;SDS011;56792;50.644;17.984;2024-03-07T09:36:18;22.70;;;13.80;;
69588;SDS011;56792;50.644;17.984;2024-03-07T09:38:49;25.90;;;15.10;;
69588;SDS011;56792;50.644;17.984;2024-03-07T09:41:21;25.90;;;14.30;;
69588;SDS011;56792;50.644;17.984;2024-03-07T09:43:54;23.80;;;14.40;;
69588;SDS011;56792;50.644;17.984;2024-03-07T09:46:28;22.60;;;15.00;;
69588;SDS011;56792;50.644;17.984;2024-03-07T09:49:00;22.70;;;14.30;;
69588;SDS011;56792;50.644;17.984;2024-03-07T09:51:34;22.00;;;13.70;;
69588;SDS011;56792;50.644;17.984;2024-03-07T09:54:07;23.30;;;14.50;;
69588;SDS011;56792;50.644;17.984;2024-03-07T09:56:40;22.40;;;14.80;;
69588;SDS011;56792;50.644;17.984;2024-03-07T09:59:13;23.20;;;14.20;;
69588;SDS011;56792;50.644;17.984;2024-03-07T10:01:50;23.40;;;15.00;;
69588;SDS011;56792;50.644;17.984;2024-03-07T10:04:40;28.10;;;14.90;;
69588;SDS011;56792;50.644;17.984;2024-03-07T10:07:17;24.90;;;15.20;;
69588;SDS011;56792;50.644;17.984;2024-03-07T10:09:48;24.10;;;14.70;;
69588;SDS011;56792;50.644;17.984;2024-03-07T10:12:24;27.20;;;15.60;;
69588;SDS011;56792;50.644;17.984;2024-03-07T10:14:57;28.20;;;16.00;;
69588;SDS011;56792;50.644;17.984;2024-03-07T10:17:33;24.60;;;15.60;;
69588;SDS011;56792;50.644;17.984;2024-03-07T10:20:05;24.00;;;15.20;;
69588;SDS011;56792;50.644;17.984;2024-03-07T10:22:42;23.50;;;14.60;;
69588;SDS011;56792;50.644;17.984;2024-03-07T10:25:13;24.60;;;14.70;;
69588;SDS011;56792;50.644;17.984;2024-03-07T10:27:47;24.20;;;14.50;;
69588;SDS011;56792;50.644;17.984;2024-03-07T10:30:18;24.60;;;15.20;;
69588;SDS011;56792;50.644;17.984;2024-03-07T10:32:53;24.70;;;15.30;;
69588;SDS011;56792;50.644;17.984;2024-03-07T10:35:26;24.20;;;15.40;;
69588;SDS011;56792;50.644;17.984;2024-03-07T10:37:58;27.20;;;16.40;;
69588;SDS011;56792;50.644;17.984;2024-03-07T10:40:34;22.90;;;15.20;;
69588;SDS011;56792;50.644;17.984;2024-03-07T10:43:10;22.30;;;14.20;;
69588;SDS011;56792;50.644;17.984;2024-03-07T10:45:45;25.10;;;15.40;;
69588;SDS011;56792;50.644;17.984;2024-03-07T10:48:20;23.10;;;13.70;;
69588;SDS011;56792;50.644;17.984;2024-03-07T10:51:06;24.40;;;14.50;;
69588;SDS011;56792;50.644;17.984;2024-03-07T10:53:49;24.00;;;13.60;;
69588;SDS011;56792;50.644;17.984;2024-03-07T10:56:37;24.70;;;14.10;;
69588;SDS011;56792;50.644;17.984;2024-03-07T10:59:20;23.50;;;13.70;;
69588;SDS011;56792;50.644;17.984;2024-03-07T11:02:04;27.00;;;14.70;;
69588;SDS011;56792;50.644;17.984;2024-03-07T11:04:45;26.80;;;14.20;;
69588;SDS011;56792;50.644;17.984;2024-03-07T11:07:18;24.30;;;14.80;;
69588;SDS011;56792;50.644;17.984;2024-03-07T11:09:53;28.80;;;16.30;;
69588;SDS011;56792;50.644;17.984;2024-03-07T11:12:25;26.90;;;15.40;;
69588;SDS011;56792;50.644;17.984;2024-03-07T11:14:58;25.40;;;14.70;;
69588;SDS011;56792;50.644;17.984;2024-03-07T11:17:29;27.50;;;15.40;;
69588;SDS011;56792;50.644;17.984;2024-03-07T11:20:21;23.40;;;15.20;;
69588;SDS011;56792;50.644;17.984;2024-03-07T11:22:54;24.60;;;14.30;;
69588;SDS011;56792;50.644;17.984;2024-03-07T11:25:28;22.10;;;14.60;;
69588;SDS011;56792;50.644;17.984;2024-03-07T11:28:02;24.60;;;15.50;;
69588;SDS011;56792;50.644;17.984;2024-03-07T11:30:34;25.90;;;16.70;;
69588;SDS011;56792;50.644;17.984;2024-03-07T11:33:08;24.40;;;15.50;;
69588;SDS011;56792;50.644;17.984;2024-03-07T11:35:49;22.60;;;14.80;;
69588;SDS011;56792;50.644;17.984;2024-03-07T11:38:21;23.90;;;14.90;;
69588;SDS011;56792;50.644;17.984;2024-03-07T11:41:02;24.60;;;14.60;;
69588;SDS011;56792;50.644;17.984;2024-03-07T11:43:36;23.40;;;14.50;;
69588;SDS011;56792;50.644;17.984;2024-03-07T11:46:09;25.60;;;15.80;;
69588;SDS011;56792;50.644;17.984;2024-03-07T11:48:44;27.50;;;16.50;;
69588;SDS011;56792;50.644;17.984;2024-03-07T11:51:19;26.30;;;15.80;;
69588;SDS011;56792;50.644;17.984;2024-03-07T11:53:55;27.70;;;15.90;;
69588;SDS011;56792;50.644;17.984;2024-03-07T11:56:27;27.30;;;15.30;;
69588;SDS011;56792;50.644;17.984;2024-03-07T11:58:58;25.00;;;16.10;;
69588;SDS011;56792;50.644;17.984;2024-03-07T12:01:32;27.40;;;16.60;;
69588;SDS011;56792;50.644;17.984;2024-03-07T12:04:04;25.50;;;16.10;;
69588;SDS011;56792;50.644;17.984;2024-03-07T12:06:36;28.10;;;17.10;;
69588;SDS011;56792;50.644;17.984;2024-03-07T12:09:08;27.40;;;15.70;;
69588;SDS011;56792;50.644;17.984;2024-03-07T12:11:51;26.80;;;15.60;;
69588;SDS011;56792;50.644;17.984;2024-03-07T12:14:23;26.30;;;14.50;;
69588;SDS011;56792;50.644;17.984;2024-03-07T12:16:55;28.20;;;15.40;;
69588;SDS011;56792;50.644;17.984;2024-03-07T12:19:26;27.00;;;15.20;;
69588;SDS011;56792;50.644;17.984;2024-03-07T12:22:01;24.30;;;15.20;;
69588;SDS011;56792;50.644;17.984;2024-03-07T12:24:32;23.10;;;13.70;;
69588;SDS011;56792;50.644;17.984;2024-03-07T12:27:08;23.30;;;13.80;;
69588;SDS011;56792;50.644;17.984;2024-03-07T12:29:40;24.70;;;14.30;;
69588;SDS011;56792;50.644;17.984;2024-03-07T12:32:13;24.60;;;14.50;;
69588;SDS011;56792;50.644;17.984;2024-03-07T12:34:45;22.30;;;14.60;;
69588;SDS011;56792;50.644;17.984;2024-03-07T12:37:16;25.50;;;14.30;;
69588;SDS011;56792;50.644;17.984;2024-03-07T12:39:55;24.10;;;13.70;;
69588;SDS011;56792;50.644;17.984;2024-03-07T12:42:29;24.80;;;13.60;;
69588;SDS011;56792;50.644;17.984;2024-03-07T12:45:00;22.40;;;13.80;;
69588;SDS011;56792;50.644;17.984;2024-03-07T12:47:36;23.00;;;14.30;;
69588;SDS011;56792;50.644;17.984;2024-03-07T12:50:09;25.90;;;15.00;;
69588;SDS011;56792;50.644;17.984;2024-03-07T12:52:41;26.70;;;15.30;;
69588;SDS011;56792;50.644;17.984;2024-03-07T12:55:12;24.20;;;13.30;;
69588;SDS011;56792;50.644;17.984;2024-03-07T12:57:46;23.70;;;15.40;;
69588;SDS011;56792;50.644;17.984;2024-03-07T13:00:20;24.90;;;15.50;;
69588;SDS011;56792;50.644;17.984;2024-03-07T13:02:51;31.20;;;17.00;;
69588;SDS011;56792;50.644;17.984;2024-03-07T13:05:25;26.60;;;15.80;;
69588;SDS011;56792;50.644;17.984;2024-03-07T13:07:56;26.00;;;15.30;;
69588;SDS011;56792;50.644;17.984;2024-03-07T13:10:28;28.30;;;15.10;;
69588;SDS011;56792;50.644;17.984;2024-03-07T13:12:59;23.60;;;15.50;;
69588;SDS011;56792;50.644;17.984;2024-03-07T13:15:31;26.80;;;16.30;;
69588;SDS011;56792;50.644;17.984;2024-03-07T13:18:06;24.00;;;13.80;;
69588;SDS011;56792;50.644;17.984;2024-03-07T13:20:38;28.30;;;17.10;;
69588;SDS011;56792;50.644;17.984;2024-03-07T13:23:11;25.20;;;15.20;;
69588;SDS011;56792;50.644;17.984;2024-03-07T13:25:42;26.20;;;14.90;;
69588;SDS011;56792;50.644;17.984;2024-03-07T13:28:14;26.10;;;16.00;;
69588;SDS011;56792;50.644;17.984;2024-03-07T13:30:47;25.50;;;15.10;;
69588;SDS011;56792;50.644;17.984;2024-03-07T13:33:22;28.80;;;16.80;;
69588;SDS011;56792;50.644;17.984;2024-03-07T13:35:55;26.20;;;15.40;;
69588;SDS011;56792;50.644;17.984;2024-03-07T13:38:29;27.30;;;16.80;;
69588;SDS011;56792;50.644;17.984;2024-03-07T13:41:00;24.90;;;15.30;;
69588;SDS011;56792;50.644;17.984;2024-03-07T13:43:32;24.10;;;15.50;;
69588;SDS011;56792;50.644;17.984;2024-03-07T13:46:03;26.20;;;14.50;;
69588;SDS011;56792;50.644;17.984;2024-03-07T13:48:35;20.90;;;13.40;;
69588;SDS011;56792;50.644;17.984;2024-03-07T13:51:06;24.10;;;14.40;;
69588;SDS011;56792;50.644;17.984;2024-03-07T13:53:37;23.00;;;15.10;;
69588;SDS011;56792;50.644;17.984;2024-03-07T13:56:33;23.40;;;12.90;;
69588;SDS011;56792;50.644;17.984;2024-03-07T13:59:31;21.10;;;13.80;;
69588;SDS011;56792;50.644;17.984;2024-03-07T14:02:33;24.50;;;13.70;;
69588;SDS011;56792;50.644;17.984;2024-03-07T14:05:42;21.80;;;14.00;;
69588;SDS011;56792;50.644;17.984;2024-03-07T14:08:57;23.00;;;14.10;;
69588;SDS011;56792;50.644;17.984;2024-03-07T14:12:27;26.70;;;13.30;;
69588;SDS011;56792;50.644;17.984;2024-03-07T14:19:22;26.60;;;15.20;;
69588;SDS011;56792;50.644;17.984;2024-03-07T14:22:30;22.20;;;13.10;;
69588;SDS011;56792;50.644;17.984;2024-03-07T14:25:42;25.40;;;15.10;;
69588;SDS011;56792;50.644;17.984;2024-03-07T14:29:00;24.10;;;13.70;;
69588;SDS011;56792;50.644;17.984;2024-03-07T14:31:43;25.10;;;14.30;;
69588;SDS011;56792;50.644;17.984;2024-03-07T14:34:28;23.40;;;14.20;;
69588;SDS011;56792;50.644;17.984;2024-03-07T14:37:20;22.10;;;13.70;;
69588;SDS011;56792;50.644;17.984;2024-03-07T14:40:06;24.80;;;14.60;;
69588;SDS011;56792;50.644;17.984;2024-03-07T14:42:43;23.60;;;14.40;;
69588;SDS011;56792;50.644;17.984;2024-03-07T14:45:19;24.10;;;14.50;;
69588;SDS011;56792;50.644;17.984;2024-03-07T14:47:55;29.00;;;14.90;;
69588;SDS011;56792;50.644;17.984;2024-03-07T14:50:28;24.70;;;14.50;;
69588;SDS011;56792;50.644;17.984;2024-03-07T14:53:01;27.30;;;15.80;;